createdAt,value
2022-08-26T00:01:56.349Z,99.90
2022-08-26T00:04:25.172Z,99.90
2022-08-26T00:06:54.032Z,99.90
2022-08-26T00:09:21.836Z,99.90
2022-08-26T00:11:51.023Z,99.90
2022-08-26T00:14:18.086Z,99.90
2022-08-26T00:16:49.021Z,99.90
2022-08-26T00:19:20.962Z,99.90
2022-08-26T00:21:49.641Z,99.90
2022-08-26T00:24:19.229Z,99.90
2022-08-26T00:26:46.914Z,99.90
2022-08-26T00:29:14.858Z,99.90
2022-08-26T00:31:42.163Z,99.90
2022-08-26T00:34:13.986Z,99.90
2022-08-26T00:36:42.981Z,99.90
2022-08-26T00:39:10.495Z,99.90
2022-08-26T00:41:41.531Z,99.90
2022-08-26T00:44:11.106Z,99.90
2022-08-26T00:46:46.519Z,99.90
2022-08-26T00:49:17.816Z,99.90
2022-08-26T00:51:49.326Z,99.90
2022-08-26T00:54:17.351Z,99.90
2022-08-26T00:57:00.933Z,99.90
2022-08-26T00:59:32.772Z,99.90
2022-08-26T01:02:02.553Z,99.90
2022-08-26T01:04:31.672Z,99.90
2022-08-26T01:07:02.372Z,99.90
2022-08-26T01:09:30.189Z,99.90
2022-08-26T01:12:00.628Z,99.90
2022-08-26T01:14:33.817Z,99.90
2022-08-26T01:17:06.207Z,99.90
2022-08-26T01:19:43.674Z,99.90
2022-08-26T01:22:20.256Z,99.90
2022-08-26T01:24:48.263Z,99.90
2022-08-26T01:27:19.535Z,99.90
2022-08-26T01:29:48.917Z,99.90
2022-08-26T01:32:19.396Z,99.90
2022-08-26T01:34:47.867Z,99.90
2022-08-26T01:37:19.558Z,99.90
2022-08-26T01:39:50.667Z,99.90
2022-08-26T01:42:20.913Z,99.90
2022-08-26T01:45:13.509Z,99.90
2022-08-26T01:47:44.322Z,99.90
2022-08-26T01:50:27.531Z,99.90
2022-08-26T01:52:57.649Z,99.90
2022-08-26T01:55:32.950Z,99.90
2022-08-26T01:58:04.755Z,99.90
2022-08-26T02:00:34.654Z,99.90
2022-08-26T02:03:17.556Z,99.90
2022-08-26T02:05:51.479Z,99.90
2022-08-26T02:08:24.868Z,99.90
2022-08-26T02:10:54.746Z,99.90
2022-08-26T02:13:25.285Z,99.90
2022-08-26T02:15:53.369Z,99.90
2022-08-26T02:18:20.757Z,99.90
2022-08-26T02:20:52.635Z,99.90
2022-08-26T02:23:19.497Z,99.90
2022-08-26T02:25:59.665Z,99.90
2022-08-26T02:28:32.438Z,99.90
2022-08-26T02:30:59.464Z,99.90
2022-08-26T02:33:29.839Z,99.90
2022-08-26T02:35:57.297Z,99.90
2022-08-26T02:38:24.343Z,99.90
2022-08-26T02:40:53.786Z,99.90
2022-08-26T02:43:31.164Z,99.90
2022-08-26T02:46:00.808Z,99.90
2022-08-26T02:48:28.926Z,99.90
2022-08-26T02:50:55.828Z,99.90
2022-08-26T02:53:25.349Z,99.90
2022-08-26T02:55:52.830Z,99.90
2022-08-26T02:58:21.786Z,99.90
2022-08-26T03:00:52.554Z,99.90
2022-08-26T03:03:20.684Z,99.90
2022-08-26T03:05:54.927Z,99.90
2022-08-26T03:08:22.311Z,99.90
2022-08-26T03:10:52.931Z,99.90
2022-08-26T03:13:19.871Z,99.90
2022-08-26T03:15:47.647Z,99.90
2022-08-26T03:18:17.432Z,99.90
2022-08-26T03:20:44.783Z,99.90
2022-08-26T03:23:11.888Z,99.90
2022-08-26T03:25:39.888Z,99.90
2022-08-26T03:28:06.724Z,99.90
2022-08-26T03:30:45.237Z,99.90
2022-08-26T03:33:13.792Z,99.90
2022-08-26T03:35:42.760Z,99.90
2022-08-26T03:38:10.394Z,99.90
2022-08-26T03:40:37.936Z,99.90
2022-08-26T03:43:07.107Z,99.90
2022-08-26T03:45:37.722Z,99.90
2022-08-26T03:48:05.129Z,99.90
2022-08-26T03:50:34.119Z,99.90
2022-08-26T03:53:01.880Z,99.90
2022-08-26T03:55:35.808Z,99.90
2022-08-26T03:58:03.012Z,99.90
2022-08-26T04:00:30.339Z,99.90
2022-08-26T04:02:57.614Z,99.90
2022-08-26T04:05:25.286Z,99.90
2022-08-26T04:07:52.407Z,99.90
2022-08-26T04:10:26.436Z,99.90
2022-08-26T04:12:58.834Z,99.90
2022-08-26T04:15:27.229Z,99.90
2022-08-26T04:17:54.450Z,99.90
2022-08-26T04:20:22.929Z,99.90
2022-08-26T04:22:50.720Z,99.90
2022-08-26T04:25:18.602Z,99.90
2022-08-26T04:27:48.321Z,99.90
2022-08-26T04:30:18.118Z,99.90
2022-08-26T04:32:49.063Z,99.90
2022-08-26T04:35:20.939Z,99.90
2022-08-26T04:37:55.390Z,99.90
2022-08-26T04:40:23.309Z,99.90
2022-08-26T04:42:51.248Z,99.90
2022-08-26T04:45:18.459Z,99.90
2022-08-26T04:47:53.770Z,99.90
2022-08-26T04:50:21.290Z,99.90
2022-08-26T04:52:50.510Z,99.90
2022-08-26T04:55:17.430Z,99.90
2022-08-26T04:57:47.285Z,99.90
2022-08-26T05:00:15.183Z,99.90
2022-08-26T05:02:42.095Z,99.90
2022-08-26T05:05:13.635Z,99.90
2022-08-26T05:07:40.872Z,99.90
2022-08-26T05:10:09.517Z,99.90
2022-08-26T05:12:37.884Z,99.90
2022-08-26T05:15:05.525Z,99.90
2022-08-26T05:17:33.387Z,99.90
2022-08-26T05:20:05.825Z,99.90
2022-08-26T05:22:34.142Z,99.90
2022-08-26T05:25:01.425Z,99.90
2022-08-26T05:27:28.371Z,99.90
2022-08-26T05:29:58.521Z,99.90
2022-08-26T05:32:25.452Z,99.90
2022-08-26T05:34:55.793Z,99.90
2022-08-26T05:37:23.263Z,99.90
2022-08-26T05:39:51.209Z,99.90
2022-08-26T05:42:19.842Z,99.90
2022-08-26T05:44:55.370Z,99.90
2022-08-26T05:47:26.225Z,99.90
2022-08-26T05:49:53.425Z,99.90
2022-08-26T05:52:20.525Z,99.90
2022-08-26T05:54:47.840Z,99.90
2022-08-26T05:57:14.917Z,99.90
2022-08-26T05:59:41.843Z,99.90
2022-08-26T06:02:08.859Z,99.90
2022-08-26T06:04:41.435Z,99.90
2022-08-26T06:07:09.935Z,99.90
2022-08-26T06:09:39.744Z,99.90
2022-08-26T06:12:06.731Z,99.90
2022-08-26T06:14:33.536Z,99.90
2022-08-26T06:17:00.840Z,99.90
2022-08-26T06:19:32.922Z,99.90
2022-08-26T06:22:23.515Z,99.90
2022-08-26T06:25:11.270Z,99.90
2022-08-26T06:27:38.472Z,99.90
2022-08-26T06:30:06.010Z,99.90
2022-08-26T06:32:35.947Z,99.90
2022-08-26T06:35:02.793Z,99.90
2022-08-26T06:37:32.091Z,99.90
2022-08-26T06:40:01.836Z,99.90
2022-08-26T06:42:33.589Z,99.90
2022-08-26T06:45:01.465Z,99.90
2022-08-26T06:47:30.563Z,99.90
2022-08-26T06:49:58.037Z,99.90
2022-08-26T06:52:27.937Z,99.90
2022-08-26T06:54:56.074Z,99.90
2022-08-26T06:57:22.921Z,99.90
2022-08-26T06:59:51.109Z,99.90
2022-08-26T07:02:18.409Z,99.90
2022-08-26T07:04:45.329Z,99.90
2022-08-26T07:07:15.726Z,99.90
2022-08-26T07:09:42.638Z,99.90
2022-08-26T07:12:09.784Z,99.90
2022-08-26T07:14:40.427Z,99.90
2022-08-26T07:17:13.927Z,99.90
2022-08-26T07:19:42.182Z,99.90
2022-08-26T07:22:09.484Z,99.90
2022-08-26T07:24:41.139Z,99.90
2022-08-26T07:27:13.650Z,99.90
2022-08-26T07:29:44.809Z,99.90
2022-08-26T07:32:13.269Z,99.90
2022-08-26T07:34:40.718Z,99.90
2022-08-26T07:37:09.055Z,99.90
2022-08-26T07:39:36.337Z,99.90
2022-08-26T07:42:07.855Z,99.90
2022-08-26T07:44:39.350Z,99.90
2022-08-26T07:47:24.254Z,99.90
2022-08-26T07:49:55.635Z,99.90
2022-08-26T07:52:26.678Z,99.90
2022-08-26T07:55:01.679Z,99.90
2022-08-26T07:57:31.225Z,99.90
2022-08-26T07:59:58.897Z,99.90
2022-08-26T08:02:28.455Z,99.90
2022-08-26T08:04:56.939Z,99.90
2022-08-26T08:07:38.784Z,99.90
2022-08-26T08:10:21.093Z,99.90
2022-08-26T08:12:54.282Z,99.90
2022-08-26T08:15:26.055Z,99.90
2022-08-26T08:17:54.785Z,99.90
2022-08-26T08:20:26.387Z,99.90
2022-08-26T08:22:54.285Z,99.90
2022-08-26T08:25:22.502Z,99.90
2022-08-26T08:27:52.742Z,99.90
2022-08-26T08:30:22.818Z,99.90
2022-08-26T08:32:51.385Z,99.90
2022-08-26T08:35:25.236Z,99.90
2022-08-26T08:37:54.950Z,99.90
2022-08-26T08:40:27.510Z,99.90
2022-08-26T08:43:37.318Z,99.90
2022-08-26T08:46:13.594Z,99.90
2022-08-26T08:48:48.386Z,99.90
2022-08-26T08:51:40.046Z,99.90
2022-08-26T08:54:08.982Z,99.90
2022-08-26T08:56:44.962Z,99.90
2022-08-26T08:59:19.738Z,99.90
2022-08-26T09:01:58.732Z,99.90
2022-08-26T09:04:47.775Z,99.90
2022-08-26T09:07:33.249Z,99.90
2022-08-26T09:10:25.394Z,99.90
2022-08-26T09:12:53.814Z,99.90
2022-08-26T09:15:43.580Z,99.90
2022-08-26T09:18:39.837Z,99.90
2022-08-26T09:21:14.032Z,99.90
2022-08-26T09:23:43.737Z,99.90
2022-08-26T09:26:30.922Z,99.90
2022-08-26T09:29:02.783Z,99.90
2022-08-26T09:31:36.100Z,99.90
2022-08-26T09:34:17.356Z,99.90
2022-08-26T09:36:54.249Z,99.90
2022-08-26T09:39:25.328Z,99.90
2022-08-26T09:42:09.708Z,99.90
2022-08-26T09:44:57.368Z,99.90
2022-08-26T09:47:32.137Z,99.90
2022-08-26T09:50:12.571Z,99.90
2022-08-26T09:52:40.397Z,99.90
2022-08-26T09:55:09.980Z,99.90
2022-08-26T09:57:51.236Z,99.90
2022-08-26T10:00:39.568Z,99.90
2022-08-26T10:03:11.571Z,99.90
2022-08-26T10:05:49.664Z,99.90
2022-08-26T10:08:23.560Z,99.90
2022-08-26T10:10:56.361Z,99.90
2022-08-26T10:13:36.527Z,99.90
2022-08-26T10:16:28.370Z,99.90
2022-08-26T10:19:08.808Z,99.90
2022-08-26T10:21:40.843Z,99.90
2022-08-26T10:24:12.551Z,99.90
2022-08-26T10:27:10.683Z,99.90
2022-08-26T10:29:48.660Z,99.90
2022-08-26T10:32:31.441Z,99.90
2022-08-26T10:34:59.142Z,99.90
2022-08-26T10:37:32.313Z,99.90
2022-08-26T10:40:27.522Z,99.70
2022-08-26T10:43:25.695Z,99.00
2022-08-26T10:46:07.335Z,99.70
2022-08-26T10:48:49.668Z,99.20
2022-08-26T10:51:25.057Z,98.50
2022-08-26T10:54:02.005Z,97.30
2022-08-26T10:56:52.434Z,97.10
2022-08-26T10:59:49.570Z,98.40
2022-08-26T11:02:34.825Z,97.70
2022-08-26T11:05:12.551Z,97.90
2022-08-26T11:07:57.198Z,98.00
2022-08-26T11:10:24.284Z,98.20
2022-08-26T11:13:07.655Z,98.60
2022-08-26T11:15:38.604Z,99.50
2022-08-26T11:18:10.023Z,99.90
2022-08-26T11:20:47.108Z,99.90
2022-08-26T11:23:31.503Z,99.90
2022-08-26T11:26:02.026Z,99.90
2022-08-26T11:28:39.292Z,99.90
2022-08-26T11:31:32.308Z,99.90
2022-08-26T11:34:07.185Z,99.90
2022-08-26T11:36:59.164Z,99.90
2022-08-26T11:39:29.459Z,99.90
2022-08-26T11:42:22.465Z,99.90
2022-08-26T11:44:51.881Z,99.90
2022-08-26T11:47:28.883Z,99.90
2022-08-26T11:50:23.585Z,99.90
2022-08-26T11:52:54.072Z,99.90
2022-08-26T11:55:23.441Z,99.90
2022-08-26T11:57:55.438Z,99.90
2022-08-26T12:00:26.969Z,99.90
2022-08-26T12:02:55.841Z,99.90
2022-08-26T12:05:36.274Z,99.90
2022-08-26T12:08:11.888Z,99.90
2022-08-26T12:10:40.137Z,99.90
2022-08-26T12:13:08.281Z,99.90
2022-08-26T12:15:38.377Z,99.90
2022-08-26T12:18:31.812Z,99.90
2022-08-26T12:21:16.548Z,99.90
2022-08-26T12:23:46.888Z,99.90
2022-08-26T12:26:28.088Z,99.90
2022-08-26T12:29:20.082Z,99.90
2022-08-26T12:32:13.640Z,99.90
2022-08-26T12:34:43.459Z,99.90
2022-08-26T12:37:15.759Z,99.90
2022-08-26T12:39:46.518Z,99.90
2022-08-26T12:42:15.747Z,99.90
2022-08-26T12:45:06.808Z,99.90
2022-08-26T12:47:43.136Z,99.90
2022-08-26T12:50:11.867Z,99.90
2022-08-26T12:53:08.453Z,99.90
2022-08-26T12:59:39.466Z,99.90
2022-08-26T13:02:43.051Z,99.90
2022-08-26T13:05:33.842Z,99.90
2022-08-26T13:08:26.712Z,99.90
2022-08-26T13:11:54.095Z,99.90
2022-08-26T13:18:57.194Z,99.90
2022-08-26T13:29:16.621Z,99.90
2022-08-26T13:31:45.750Z,99.90
2022-08-26T13:34:21.531Z,99.90
2022-08-26T13:37:06.843Z,99.90
2022-08-26T13:39:50.001Z,99.90
2022-08-26T13:43:05.966Z,99.90
2022-08-26T13:45:33.062Z,99.90
2022-08-26T13:48:03.098Z,99.90
2022-08-26T13:50:30.025Z,99.90
2022-08-26T13:52:57.066Z,99.90
2022-08-26T13:55:23.908Z,99.90
2022-08-26T13:57:50.886Z,99.90
2022-08-26T14:00:20.057Z,99.90
2022-08-26T14:02:47.685Z,99.90
2022-08-26T14:05:15.447Z,99.90
2022-08-26T14:07:42.368Z,99.90
2022-08-26T14:10:09.729Z,99.90
2022-08-26T14:12:37.050Z,99.90
2022-08-26T14:15:04.303Z,99.90
2022-08-26T14:17:32.584Z,99.90
2022-08-26T14:20:02.144Z,99.90
2022-08-26T14:22:29.154Z,99.90
2022-08-26T14:24:56.519Z,99.90
2022-08-26T14:27:23.460Z,99.90
2022-08-26T14:29:50.682Z,99.90
2022-08-26T14:32:26.196Z,99.90
2022-08-26T14:34:54.248Z,99.90
2022-08-26T14:37:22.610Z,99.90
2022-08-26T14:39:50.433Z,99.90
2022-08-26T14:42:31.565Z,99.90
2022-08-26T14:45:02.069Z,99.90
2022-08-26T14:47:31.715Z,99.90
2022-08-26T14:49:58.886Z,99.90
2022-08-26T14:52:26.320Z,99.90
2022-08-26T14:54:55.090Z,99.90
2022-08-26T14:57:22.543Z,99.90
2022-08-26T14:59:50.542Z,99.90
2022-08-26T15:02:32.797Z,99.90
2022-08-26T15:05:02.188Z,99.90
2022-08-26T15:07:29.219Z,99.90
2022-08-26T15:09:59.247Z,99.90
2022-08-26T15:12:26.412Z,99.90
2022-08-26T15:14:53.945Z,99.90
2022-08-26T15:17:20.821Z,99.90
2022-08-26T15:19:47.709Z,99.90
2022-08-26T15:22:14.635Z,99.90
2022-08-26T15:24:41.531Z,99.90
2022-08-26T15:27:09.062Z,99.90
2022-08-26T15:29:36.310Z,99.90
2022-08-26T15:32:03.717Z,99.90
2022-08-26T15:34:31.927Z,99.90
2022-08-26T15:37:01.162Z,99.90
2022-08-26T15:39:28.498Z,99.90
2022-08-26T15:41:59.719Z,99.90
2022-08-26T15:44:27.560Z,99.90
2022-08-26T15:46:58.471Z,99.90
2022-08-26T15:49:26.917Z,99.90
2022-08-26T15:51:53.709Z,99.90
2022-08-26T15:54:23.337Z,99.90
2022-08-26T15:56:52.221Z,99.90
2022-08-26T15:59:20.683Z,99.90
2022-08-26T16:01:48.383Z,99.90
2022-08-26T16:04:15.400Z,99.90
2022-08-26T16:06:43.499Z,99.90
2022-08-26T16:09:10.763Z,99.90
2022-08-26T16:11:37.874Z,99.90
2022-08-26T16:14:05.573Z,99.90
2022-08-26T16:16:32.657Z,99.90
2022-08-26T16:19:03.250Z,99.90
2022-08-26T16:21:34.042Z,99.90
2022-08-26T16:24:00.962Z,99.90
2022-08-26T16:26:32.832Z,99.90
2022-08-26T16:29:02.662Z,99.90
2022-08-26T16:31:29.962Z,99.90
2022-08-26T16:33:56.943Z,99.90
2022-08-26T16:36:24.207Z,99.90
2022-08-26T16:38:58.416Z,99.90
2022-08-26T16:41:28.375Z,99.90
2022-08-26T16:43:55.773Z,99.90
2022-08-26T16:46:25.667Z,99.90
2022-08-26T16:48:54.555Z,99.90
2022-08-26T16:51:23.766Z,99.90
2022-08-26T16:53:51.907Z,99.90
2022-08-26T16:56:21.296Z,99.90
2022-08-26T16:58:48.742Z,99.90
2022-08-26T17:01:16.429Z,99.90
2022-08-26T17:03:43.978Z,99.90
2022-08-26T17:06:11.103Z,99.90
2022-08-26T17:08:44.197Z,99.90
2022-08-26T17:11:14.593Z,99.90
2022-08-26T17:13:41.571Z,99.90
2022-08-26T17:16:10.664Z,99.90
2022-08-26T17:18:38.029Z,99.90
2022-08-26T17:21:08.828Z,99.90
2022-08-26T17:23:37.263Z,99.90
2022-08-26T17:26:04.987Z,99.90
2022-08-26T17:28:32.266Z,99.90
2022-08-26T17:30:59.966Z,99.90
2022-08-26T17:33:27.856Z,99.90
2022-08-26T17:35:54.941Z,99.90
2022-08-26T17:38:22.188Z,99.90
2022-08-26T17:40:49.734Z,99.90
2022-08-26T17:43:19.989Z,99.90
2022-08-26T17:45:50.691Z,99.90
2022-08-26T17:48:17.721Z,99.90
2022-08-26T17:50:49.429Z,99.90
2022-08-26T17:53:22.220Z,99.90
2022-08-26T17:55:49.549Z,99.90
2022-08-26T17:58:18.393Z,99.90
2022-08-26T18:00:49.968Z,99.90
2022-08-26T18:03:17.645Z,99.90
2022-08-26T18:05:48.885Z,99.90
2022-08-26T18:08:15.764Z,99.90
2022-08-26T18:10:45.686Z,99.90
2022-08-26T18:13:14.784Z,99.90
2022-08-26T18:15:43.530Z,99.90
2022-08-26T18:18:10.499Z,99.90
2022-08-26T18:20:40.255Z,99.90
2022-08-26T18:23:07.602Z,99.90
2022-08-26T18:25:38.123Z,99.90
2022-08-26T18:28:05.270Z,99.90
2022-08-26T18:30:32.106Z,99.90
2022-08-26T18:33:00.661Z,99.90
2022-08-26T18:35:29.833Z,99.90
2022-08-26T18:38:10.894Z,99.90
2022-08-26T18:40:40.371Z,99.90
2022-08-26T18:43:07.884Z,99.90
2022-08-26T18:45:35.246Z,99.90
2022-08-26T18:48:04.009Z,99.90
2022-08-26T18:50:33.351Z,99.90
2022-08-26T18:53:03.114Z,99.90
2022-08-26T18:55:30.009Z,99.90
2022-08-26T18:57:56.910Z,99.90
2022-08-26T19:00:23.860Z,99.90
2022-08-26T19:02:51.890Z,99.90
2022-08-26T19:05:21.633Z,99.90
2022-08-26T19:07:48.503Z,99.90
2022-08-26T19:10:15.556Z,99.90
2022-08-26T19:12:42.623Z,99.90
2022-08-26T19:15:11.328Z,99.90
2022-08-26T19:17:38.201Z,99.90
2022-08-26T19:20:05.656Z,99.90
2022-08-26T19:22:32.562Z,99.90
2022-08-26T19:24:59.478Z,99.90
2022-08-26T19:27:26.260Z,99.90
2022-08-26T19:29:53.144Z,99.90
2022-08-26T19:32:24.190Z,99.90
2022-08-26T19:34:54.562Z,99.90
2022-08-26T19:37:21.571Z,99.90
2022-08-26T19:39:48.582Z,99.90
2022-08-26T19:42:16.471Z,99.90
2022-08-26T19:45:02.105Z,99.90
2022-08-26T19:47:32.209Z,99.90
2022-08-26T19:49:59.004Z,99.90
2022-08-26T19:52:30.148Z,99.90
2022-08-26T19:55:00.008Z,99.90
2022-08-26T19:57:26.799Z,99.90
2022-08-26T19:59:54.227Z,99.90
2022-08-26T20:02:21.130Z,99.90
2022-08-26T20:04:48.100Z,99.90
2022-08-26T20:07:18.609Z,99.90
2022-08-26T20:09:52.521Z,99.90
2022-08-26T20:12:19.474Z,99.90
2022-08-26T20:14:46.315Z,99.90
2022-08-26T20:17:13.596Z,99.90
2022-08-26T20:19:59.320Z,99.90
2022-08-26T20:22:26.579Z,99.90
2022-08-26T20:24:56.344Z,99.90
2022-08-26T20:27:34.714Z,99.90
2022-08-26T20:30:07.480Z,99.90
2022-08-26T20:32:35.651Z,99.90
2022-08-26T20:35:03.171Z,99.90
2022-08-26T20:37:30.101Z,99.90
2022-08-26T20:39:57.003Z,99.90
2022-08-26T20:42:24.125Z,99.90
2022-08-26T20:44:54.177Z,99.90
2022-08-26T20:47:24.869Z,99.90
2022-08-26T20:49:52.349Z,99.90
2022-08-26T20:52:20.326Z,99.90
2022-08-26T20:54:47.323Z,99.90
2022-08-26T20:57:17.167Z,99.90
2022-08-26T20:59:44.301Z,99.90
2022-08-26T21:02:11.172Z,99.90
2022-08-26T21:04:38.104Z,99.90
2022-08-26T21:07:05.044Z,99.90
2022-08-26T21:09:32.873Z,99.90
2022-08-26T21:11:59.728Z,99.90
2022-08-26T21:14:26.657Z,99.90
2022-08-26T21:16:53.839Z,99.90
2022-08-26T21:19:20.934Z,99.90
2022-08-26T21:21:52.206Z,99.90
2022-08-26T21:24:19.190Z,99.90
2022-08-26T21:26:47.282Z,99.90
2022-08-26T21:29:14.982Z,99.90
2022-08-26T21:31:46.521Z,99.90
2022-08-26T21:34:18.703Z,99.90
2022-08-26T21:36:47.216Z,99.90
2022-08-26T21:39:14.824Z,99.90
2022-08-26T21:41:43.478Z,99.90
2022-08-26T21:44:12.205Z,99.90
2022-08-26T21:46:39.774Z,99.90
2022-08-26T21:49:10.564Z,99.90
2022-08-26T21:51:41.869Z,99.90
2022-08-26T21:54:11.396Z,99.90
2022-08-26T21:56:47.117Z,99.90
2022-08-26T21:59:17.515Z,99.90
2022-08-26T22:01:44.504Z,99.90
2022-08-26T22:04:11.407Z,99.90
2022-08-26T22:06:50.059Z,99.90
2022-08-26T22:09:20.148Z,99.90
2022-08-26T22:11:47.551Z,99.90
2022-08-26T22:14:19.224Z,99.90
2022-08-26T22:16:50.555Z,99.90
2022-08-26T22:19:23.495Z,99.90
2022-08-26T22:21:52.280Z,99.90
2022-08-26T22:24:20.717Z,99.90
2022-08-26T22:26:47.932Z,99.90
2022-08-26T22:29:16.070Z,99.90
2022-08-26T22:31:42.894Z,99.90
2022-08-26T22:34:13.216Z,99.90
2022-08-26T22:36:44.709Z,99.90
2022-08-26T22:39:17.786Z,99.90
2022-08-26T22:41:48.588Z,99.90
2022-08-26T22:44:16.315Z,99.90
2022-08-26T22:46:47.069Z,99.90
2022-08-26T22:49:16.375Z,99.90
2022-08-26T22:51:44.530Z,99.90
2022-08-26T22:54:11.769Z,99.90
2022-08-26T22:56:39.382Z,99.90
2022-08-26T22:59:11.830Z,99.90
2022-08-26T23:01:41.433Z,99.90
2022-08-26T23:04:08.785Z,99.90
2022-08-26T23:06:37.953Z,99.90
2022-08-26T23:09:06.715Z,99.90
2022-08-26T23:11:34.992Z,99.90
2022-08-26T23:14:02.854Z,99.90
2022-08-26T23:16:44.283Z,99.90
2022-08-26T23:19:13.656Z,99.90
2022-08-26T23:21:40.763Z,99.90
2022-08-26T23:24:08.631Z,99.90
2022-08-26T23:26:35.824Z,99.90
2022-08-26T23:29:03.910Z,99.90
2022-08-26T23:31:30.881Z,99.90
2022-08-26T23:34:19.439Z,99.90
2022-08-26T23:36:49.020Z,99.90
2022-08-26T23:39:18.426Z,99.90
2022-08-26T23:41:45.488Z,99.90
2022-08-26T23:44:12.749Z,99.90
2022-08-26T23:46:39.783Z,99.90
2022-08-26T23:49:06.907Z,99.90
2022-08-26T23:51:52.536Z,99.90
2022-08-26T23:54:19.759Z,99.90
2022-08-26T23:56:48.718Z,99.90
2022-08-26T23:59:15.679Z,99.90
